createdAt,value
2018-08-03T00:01:42.626Z,5.40
2018-08-03T00:04:10.996Z,5.77
2018-08-03T00:06:38.777Z,4.77
2018-08-03T00:09:07.586Z,6.30
2018-08-03T00:11:35.213Z,4.80
2018-08-03T00:14:02.754Z,4.87
2018-08-03T00:16:30.406Z,4.60
2018-08-03T00:19:01.457Z,4.57
2018-08-03T00:21:28.721Z,7.37
2018-08-03T00:23:56.522Z,4.57
2018-08-03T00:26:23.893Z,5.17
2018-08-03T00:28:51.889Z,4.43
2018-08-03T00:31:20.268Z,4.63
2018-08-03T00:33:47.742Z,9.17
2018-08-03T00:36:15.011Z,8.13
2018-08-03T00:38:42.281Z,4.50
2018-08-03T00:41:09.773Z,5.07
2018-08-03T00:43:40.273Z,4.87
2018-08-03T00:46:07.753Z,4.93
2018-08-03T00:48:35.045Z,4.73
2018-08-03T00:51:02.450Z,5.20
2018-08-03T00:53:29.771Z,5.23
2018-08-03T00:55:57.140Z,5.07
2018-08-03T00:58:24.714Z,4.47
2018-08-03T01:00:52.025Z,4.73
2018-08-03T01:03:19.523Z,4.90
2018-08-03T01:05:47.028Z,6.03
2018-08-03T01:08:14.374Z,5.17
2018-08-03T01:10:41.700Z,7.17
2018-08-03T01:13:09.065Z,5.20
2018-08-03T01:15:36.345Z,6.33
2018-08-03T01:18:04.037Z,5.17
2018-08-03T01:20:31.372Z,7.47
2018-08-03T01:22:58.745Z,5.20
2018-08-03T01:25:26.030Z,5.10
2018-08-03T01:27:53.608Z,5.47
2018-08-03T01:30:20.954Z,5.33
2018-08-03T01:32:48.454Z,4.87
2018-08-03T01:35:15.996Z,5.00
2018-08-03T01:37:44.262Z,10.50
2018-08-03T01:40:11.983Z,5.17
2018-08-03T01:42:39.489Z,5.00
2018-08-03T01:45:06.843Z,5.37
2018-08-03T01:47:34.412Z,5.80
2018-08-03T01:50:01.799Z,5.33
2018-08-03T01:52:29.313Z,8.30
2018-08-03T01:54:56.657Z,5.47
2018-08-03T01:57:23.926Z,5.90
2018-08-03T01:59:51.403Z,6.07
2018-08-03T02:02:19.118Z,5.63
2018-08-03T02:04:46.684Z,5.33
2018-08-03T02:07:14.010Z,5.43
2018-08-03T02:09:41.392Z,7.27
2018-08-03T02:12:08.821Z,5.63
2018-08-03T02:14:36.147Z,5.80
2018-08-03T02:17:03.584Z,5.70
2018-08-03T02:19:30.966Z,5.57
2018-08-03T02:21:58.308Z,6.10
2018-08-03T02:24:25.925Z,6.27
2018-08-03T02:26:53.777Z,7.50
2018-08-03T02:29:21.603Z,5.70
2018-08-03T02:31:49.597Z,6.10
2018-08-03T02:34:17.655Z,6.60
2018-08-03T02:36:45.058Z,6.67
2018-08-03T02:39:12.430Z,6.03
2018-08-03T02:41:39.973Z,5.47
2018-08-03T02:44:07.963Z,6.80
2018-08-03T02:46:35.474Z,5.87
2018-08-03T02:49:02.815Z,5.93
2018-08-03T02:51:30.369Z,6.27
2018-08-03T02:53:57.972Z,6.10
2018-08-03T02:56:25.325Z,6.03
2018-08-03T02:58:53.117Z,5.63
2018-08-03T03:01:23.896Z,5.80
2018-08-03T03:03:51.533Z,6.07
2018-08-03T03:06:18.841Z,7.10
2018-08-03T03:08:46.354Z,6.63
2018-08-03T03:11:13.686Z,4.87
2018-08-03T03:13:41.153Z,5.73
2018-08-03T03:16:08.509Z,7.70
2018-08-03T03:18:35.793Z,8.03
2018-08-03T03:21:03.098Z,8.67
2018-08-03T03:23:30.525Z,6.60
2018-08-03T03:25:57.841Z,5.97
2018-08-03T03:28:25.115Z,9.90
2018-08-03T03:30:52.717Z,8.60
2018-08-03T03:33:20.032Z,7.93
2018-08-03T03:35:47.590Z,14.57
2018-08-03T03:38:15.102Z,10.17
2018-08-03T03:40:43.818Z,14.10
2018-08-03T03:43:11.819Z,9.23
2018-08-03T03:45:39.117Z,9.20
2018-08-03T03:48:06.734Z,11.47
2018-08-03T03:50:34.034Z,12.80
2018-08-03T03:53:01.358Z,10.13
2018-08-03T03:55:28.851Z,8.50
2018-08-03T03:57:56.525Z,7.33
2018-08-03T04:00:23.824Z,8.57
2018-08-03T04:02:54.197Z,9.77
2018-08-03T04:05:22.348Z,7.13
2018-08-03T04:07:49.688Z,8.30
2018-08-03T04:10:17.556Z,7.63
2018-08-03T04:12:45.044Z,6.63
2018-08-03T04:15:12.548Z,8.40
2018-08-03T04:17:39.850Z,7.17
2018-08-03T04:20:07.101Z,8.53
2018-08-03T04:22:34.557Z,9.83
2018-08-03T04:25:02.081Z,8.00
2018-08-03T04:27:29.435Z,8.77
2018-08-03T04:29:57.281Z,7.47
2018-08-03T04:32:24.553Z,7.90
2018-08-03T04:34:52.171Z,8.10
2018-08-03T04:37:19.474Z,7.97
2018-08-03T04:39:46.833Z,7.23
2018-08-03T04:42:14.247Z,8.67
2018-08-03T04:44:43.074Z,7.67
2018-08-03T04:47:11.859Z,7.53
2018-08-03T04:49:39.184Z,9.60
2018-08-03T04:52:06.973Z,7.73
2018-08-03T04:54:34.302Z,8.30
2018-08-03T04:57:01.568Z,7.83
2018-08-03T04:59:37.692Z,8.70
2018-08-03T05:02:05.862Z,7.97
2018-08-03T05:04:33.296Z,8.47
2018-08-03T05:07:00.630Z,9.07
2018-08-03T05:09:27.985Z,9.10
2018-08-03T05:11:55.314Z,8.40
2018-08-03T05:14:22.638Z,8.90
2018-08-03T05:16:50.311Z,9.17
2018-08-03T05:21:52.889Z,9.83
2018-08-03T05:24:20.396Z,9.10
2018-08-03T05:26:47.865Z,9.63
2018-08-03T05:29:15.425Z,8.97
2018-08-03T05:31:42.813Z,9.63
2018-08-03T05:34:10.264Z,9.40
2018-08-03T05:36:38.287Z,10.57
2018-08-03T05:39:09.059Z,10.53
2018-08-03T05:41:36.812Z,8.40
2018-08-03T05:44:04.192Z,9.57
2018-08-03T05:46:31.593Z,10.20
2018-08-03T05:48:59.036Z,10.60
2018-08-03T05:51:26.349Z,10.40
2018-08-03T05:53:53.910Z,9.27
2018-08-03T05:56:21.269Z,11.70
2018-08-03T05:58:48.805Z,10.80
2018-08-03T06:01:16.536Z,10.17
2018-08-03T06:03:43.846Z,11.37
2018-08-03T06:06:11.202Z,10.13
2018-08-03T06:08:38.557Z,10.63
2018-08-03T06:11:06.322Z,10.27
2018-08-03T06:13:34.393Z,12.23
2018-08-03T06:16:01.757Z,11.23
2018-08-03T06:18:29.115Z,10.50
2018-08-03T06:20:56.480Z,10.97
2018-08-03T06:23:24.298Z,11.83
2018-08-03T06:25:51.663Z,13.77
2018-08-03T06:28:19.007Z,11.23
2018-08-03T06:30:46.408Z,12.30
2018-08-03T06:33:14.006Z,15.10
2018-08-03T06:35:41.457Z,17.33
2018-08-03T06:38:08.869Z,10.80
2018-08-03T06:40:36.508Z,11.67
2018-08-03T06:43:04.084Z,10.90
2018-08-03T06:45:32.094Z,11.10
2018-08-03T06:47:59.468Z,13.77
2018-08-03T06:50:27.611Z,11.00
2018-08-03T06:52:56.629Z,9.43
2018-08-03T06:55:24.001Z,9.90
2018-08-03T06:57:51.547Z,11.00
2018-08-03T07:00:18.960Z,9.90
2018-08-03T07:02:48.783Z,8.73
2018-08-03T07:05:16.317Z,9.43
2018-08-03T07:07:43.938Z,9.80
2018-08-03T07:10:11.438Z,11.13
2018-08-03T07:12:38.892Z,12.10
2018-08-03T07:15:06.546Z,10.00
2018-08-03T07:17:33.901Z,10.50
2018-08-03T07:20:01.323Z,10.43
2018-08-03T07:22:28.886Z,10.20
2018-08-03T07:24:56.254Z,9.70
2018-08-03T07:27:23.759Z,10.27
2018-08-03T07:29:51.159Z,9.80
2018-08-03T07:32:18.547Z,10.17
2018-08-03T07:34:46.740Z,12.73
2018-08-03T07:37:18.129Z,9.37
2018-08-03T07:39:45.669Z,9.70
2018-08-03T07:42:13.668Z,13.03
2018-08-03T07:44:41.103Z,14.30
2018-08-03T07:47:08.891Z,14.33
2018-08-03T07:49:36.338Z,8.40
2018-08-03T07:52:07.622Z,21.53
2018-08-03T07:54:35.032Z,11.27
2018-08-03T07:57:02.388Z,13.00
2018-08-03T07:59:29.844Z,6.90
2018-08-03T08:01:57.315Z,6.80
2018-08-03T08:04:24.799Z,7.90
2018-08-03T08:06:52.202Z,11.20
2018-08-03T08:09:19.715Z,6.13
2018-08-03T08:11:47.130Z,6.23
2018-08-03T08:14:14.449Z,6.43
2018-08-03T08:16:43.491Z,7.50
2018-08-03T08:19:14.325Z,5.90
2018-08-03T08:21:41.685Z,6.00
2018-08-03T08:24:09.023Z,5.73
2018-08-03T08:26:36.417Z,10.37
2018-08-03T08:29:03.838Z,7.20
2018-08-03T08:31:35.891Z,5.20
2018-08-03T08:34:03.274Z,6.10
2018-08-03T08:36:30.612Z,6.30
2018-08-03T08:38:58.032Z,5.70
2018-08-03T08:41:25.439Z,5.77
2018-08-03T08:43:52.966Z,6.07
2018-08-03T08:46:20.299Z,6.97
2018-08-03T08:48:49.829Z,5.50
2018-08-03T08:51:17.831Z,6.60
2018-08-03T08:53:45.165Z,6.77
2018-08-03T08:56:12.764Z,6.47
2018-08-03T08:58:40.099Z,7.43
2018-08-03T09:01:13.989Z,6.93
2018-08-03T09:03:41.557Z,6.80
2018-08-03T09:06:08.919Z,6.07
2018-08-03T09:08:36.217Z,6.70
2018-08-03T09:11:03.686Z,10.00
2018-08-03T09:13:36.149Z,7.53
2018-08-03T09:16:03.533Z,6.47
2018-08-03T09:18:30.935Z,6.80
2018-08-03T09:20:58.438Z,6.67
2018-08-03T09:23:25.837Z,7.20
2018-08-03T09:25:53.323Z,7.57
2018-08-03T09:28:27.002Z,7.30
2018-08-03T09:30:54.781Z,7.17
2018-08-03T09:33:22.334Z,6.80
2018-08-03T09:35:50.011Z,6.97
2018-08-03T09:38:17.653Z,6.80
2018-08-03T09:40:45.172Z,6.33
2018-08-03T09:43:14.306Z,6.57
2018-08-03T09:45:41.971Z,6.23
2018-08-03T09:48:09.533Z,7.87
2018-08-03T09:50:37.166Z,6.07
2018-08-03T09:53:04.762Z,6.50
2018-08-03T09:55:32.342Z,6.73
2018-08-03T09:58:00.024Z,7.03
2018-08-03T10:00:33.329Z,11.47
2018-08-03T10:03:00.883Z,6.70
2018-08-03T10:05:28.392Z,6.20
2018-08-03T10:07:55.947Z,6.00
2018-08-03T10:10:23.602Z,6.50
2018-08-03T10:12:51.207Z,5.80
2018-08-03T10:15:18.844Z,6.53
2018-08-03T10:17:46.404Z,6.43
2018-08-03T10:20:14.105Z,6.33
2018-08-03T10:22:41.654Z,5.47
2018-08-03T10:25:09.186Z,6.77
2018-08-03T10:27:36.785Z,7.17
2018-08-03T10:30:05.002Z,6.63
2018-08-03T10:32:32.582Z,5.03
2018-08-03T10:35:00.109Z,6.50
2018-08-03T10:37:27.598Z,5.60
2018-08-03T10:39:55.205Z,6.17
2018-08-03T10:42:22.781Z,5.80
2018-08-03T10:44:50.320Z,5.00
2018-08-03T10:47:18.177Z,4.80
2018-08-03T10:49:45.725Z,6.10
2018-08-03T10:52:13.297Z,5.20
2018-08-03T10:54:41.019Z,6.00
2018-08-03T10:57:08.639Z,4.73
2018-08-03T10:59:36.562Z,6.80
2018-08-03T11:02:04.234Z,6.33
2018-08-03T11:04:31.728Z,4.80
2018-08-03T11:06:59.240Z,5.07
2018-08-03T11:09:26.873Z,6.60
2018-08-03T11:11:54.387Z,5.67
2018-08-03T11:14:22.195Z,5.23
2018-08-03T11:16:49.857Z,5.20
2018-08-03T11:19:17.781Z,5.60
2018-08-03T11:21:45.365Z,5.60
2018-08-03T11:24:12.995Z,5.90
2018-08-03T11:26:40.607Z,5.60
2018-08-03T11:29:08.325Z,5.57
2018-08-03T11:31:35.989Z,5.73
2018-08-03T11:34:03.513Z,7.13
2018-08-03T11:36:31.204Z,7.47
2018-08-03T11:38:58.828Z,6.27
2018-08-03T11:41:26.356Z,5.97
2018-08-03T11:43:53.889Z,5.57
2018-08-03T11:46:21.429Z,5.73
2018-08-03T11:48:49.011Z,5.03
2018-08-03T11:51:16.753Z,7.97
2018-08-03T11:53:44.308Z,5.90
2018-08-03T11:56:11.833Z,6.50
2018-08-03T11:58:39.346Z,5.97
2018-08-03T12:01:06.881Z,5.70
2018-08-03T12:03:34.412Z,7.70
2018-08-03T12:06:01.916Z,5.80
2018-08-03T12:08:29.438Z,5.10
2018-08-03T12:10:57.006Z,6.00
2018-08-03T12:13:24.777Z,5.23
2018-08-03T12:15:52.325Z,5.10
2018-08-03T12:18:19.920Z,6.57
2018-08-03T12:20:47.499Z,5.53
2018-08-03T12:23:15.061Z,5.17
2018-08-03T12:25:44.806Z,5.60
2018-08-03T12:28:12.592Z,5.13
2018-08-03T12:30:40.169Z,5.93
2018-08-03T12:33:07.910Z,6.10
2018-08-03T12:35:35.437Z,6.20
2018-08-03T12:38:02.957Z,5.60
2018-08-03T12:40:33.734Z,5.90
2018-08-03T12:43:01.283Z,6.40
2018-08-03T12:45:33.995Z,5.27
2018-08-03T12:47:56.412Z,6.00
2018-08-03T12:50:24.072Z,5.83
2018-08-03T12:52:56.571Z,5.57
2018-08-03T12:55:24.268Z,5.80
2018-08-03T12:57:51.871Z,6.50
2018-08-03T13:00:19.569Z,5.77
2018-08-03T13:02:47.090Z,5.80
2018-08-03T13:05:14.618Z,5.70
2018-08-03T13:07:43.608Z,6.00
2018-08-03T13:10:11.091Z,5.63
2018-08-03T13:12:38.710Z,5.63
2018-08-03T13:15:07.103Z,5.80
2018-08-03T13:17:34.610Z,5.97
2018-08-03T13:20:07.256Z,6.80
2018-08-03T13:22:34.816Z,6.00
2018-08-03T13:25:02.386Z,6.00
2018-08-03T13:27:30.169Z,8.13
2018-08-03T13:29:57.720Z,5.60
2018-08-03T13:32:27.988Z,6.17
2018-08-03T13:34:57.801Z,5.33
2018-08-03T13:37:25.381Z,5.63
2018-08-03T13:39:52.968Z,5.57
2018-08-03T13:42:20.932Z,5.47
2018-08-03T13:44:48.520Z,5.90
2018-08-03T13:47:19.873Z,5.90
2018-08-03T13:49:47.468Z,5.40
2018-08-03T13:52:14.993Z,8.07
2018-08-03T13:54:42.587Z,5.37
2018-08-03T13:57:10.133Z,5.60
2018-08-03T13:59:37.703Z,6.47
2018-08-03T14:02:24.170Z,5.33
2018-08-03T14:04:52.318Z,5.50
2018-08-03T14:07:19.984Z,5.73
2018-08-03T14:09:51.697Z,5.73
2018-08-03T14:12:19.337Z,6.27
2018-08-03T14:14:46.967Z,6.30
2018-08-03T14:17:14.546Z,5.63
2018-08-03T14:19:42.384Z,6.43
2018-08-03T14:22:10.416Z,5.77
2018-08-03T14:24:38.021Z,5.80
2018-08-03T14:27:05.835Z,5.50
2018-08-03T14:29:33.498Z,6.87
2018-08-03T14:32:04.718Z,5.53
2018-08-03T14:34:32.617Z,4.87
2018-08-03T14:37:00.650Z,5.77
2018-08-03T14:39:28.222Z,5.50
2018-08-03T14:41:55.818Z,5.20
2018-08-03T14:44:23.372Z,5.80
2018-08-03T14:46:50.946Z,5.80
2018-08-03T14:49:18.539Z,5.03
2018-08-03T14:51:46.066Z,5.47
2018-08-03T14:54:13.706Z,4.90
2018-08-03T14:56:41.592Z,5.70
2018-08-03T14:59:09.893Z,5.23
2018-08-03T15:01:37.408Z,6.23
2018-08-03T15:04:05.074Z,5.73
2018-08-03T15:06:32.838Z,6.03
2018-08-03T15:09:00.741Z,5.90
2018-08-03T15:11:28.326Z,5.67
2018-08-03T15:13:55.938Z,5.70
2018-08-03T15:16:23.271Z,5.13
2018-08-03T15:18:50.661Z,6.50
2018-08-03T15:21:18.442Z,5.77
2018-08-03T15:23:46.024Z,5.30
2018-08-03T15:26:13.379Z,5.73
2018-08-03T15:28:40.705Z,5.10
2018-08-03T15:31:08.237Z,5.50
2018-08-03T15:33:35.602Z,4.90
2018-08-03T15:36:02.999Z,5.83
2018-08-03T15:38:30.528Z,5.23
2018-08-03T15:40:57.887Z,5.60
2018-08-03T15:43:25.839Z,5.67
2018-08-03T15:45:53.457Z,5.63
2018-08-03T15:48:21.059Z,5.33
2018-08-03T15:50:48.653Z,5.63
2018-08-03T15:53:16.033Z,6.07
2018-08-03T15:55:43.373Z,5.50
2018-08-03T15:58:11.034Z,6.00
2018-08-03T16:00:38.413Z,5.40
2018-08-03T16:03:05.734Z,5.50
2018-08-03T16:05:33.314Z,6.80
2018-08-03T16:08:00.852Z,6.83
2018-08-03T16:10:28.725Z,6.20
2018-08-03T16:12:56.077Z,5.30
2018-08-03T16:15:23.670Z,5.03
2018-08-03T16:17:51.342Z,5.90
2018-08-03T16:20:19.662Z,5.33
2018-08-03T16:22:46.974Z,6.07
2018-08-03T16:25:14.359Z,5.80
2018-08-03T16:27:41.818Z,5.97
2018-08-03T16:30:09.842Z,5.03
2018-08-03T16:32:37.165Z,5.07
2018-08-03T16:35:05.062Z,6.10
2018-08-03T16:37:32.400Z,6.20
2018-08-03T16:39:59.942Z,5.27
2018-08-03T16:42:27.289Z,5.50
2018-08-03T16:44:54.671Z,5.10
2018-08-03T16:47:22.088Z,5.10
2018-08-03T16:49:49.579Z,6.90
2018-08-03T16:52:17.097Z,4.70
2018-08-03T16:54:44.489Z,5.67
2018-08-03T16:57:17.412Z,4.93
2018-08-03T16:59:45.415Z,4.47
2018-08-03T17:02:12.808Z,6.33
2018-08-03T17:04:40.191Z,5.23
2018-08-03T17:07:12.281Z,5.17
2018-08-03T17:09:39.563Z,5.23
2018-08-03T17:12:06.893Z,5.10
2018-08-03T17:14:34.214Z,5.03
2018-08-03T17:17:01.642Z,4.90
2018-08-03T17:19:29.101Z,6.37
2018-08-03T17:22:01.957Z,4.93
2018-08-03T17:24:29.305Z,4.90
2018-08-03T17:26:56.809Z,5.27
2018-08-03T17:29:24.165Z,8.10
2018-08-03T17:31:51.636Z,5.30
2018-08-03T17:34:18.981Z,4.57
2018-08-03T17:36:46.407Z,5.17
2018-08-03T17:39:13.790Z,5.20
2018-08-03T17:41:41.168Z,5.10
2018-08-03T17:44:08.653Z,6.70
2018-08-03T17:46:35.992Z,7.60
2018-08-03T17:49:03.439Z,5.30
2018-08-03T17:51:30.833Z,7.40
2018-08-03T17:53:58.250Z,7.90
2018-08-03T17:56:25.697Z,6.57
2018-08-03T17:58:53.182Z,7.40
2018-08-03T18:01:20.774Z,5.17
2018-08-03T18:03:50.327Z,6.27
2018-08-03T18:06:19.712Z,10.50
2018-08-03T18:08:47.273Z,5.80
2018-08-03T18:11:14.632Z,5.70
2018-08-03T18:13:42.025Z,5.93
2018-08-03T18:16:09.867Z,5.37
2018-08-03T18:18:37.454Z,5.90
2018-08-03T18:21:04.792Z,5.60
2018-08-03T18:23:32.245Z,5.50
2018-08-03T18:25:59.846Z,5.40
2018-08-03T18:28:27.437Z,6.13
2018-08-03T18:30:55.369Z,6.47
2018-08-03T18:33:22.757Z,6.40
2018-08-03T18:35:50.127Z,7.17
2018-08-03T18:38:17.873Z,4.80
2018-08-03T18:40:45.508Z,6.87
2018-08-03T18:43:12.859Z,6.67
2018-08-03T18:45:40.229Z,5.70
2018-08-03T18:48:07.628Z,5.70
2018-08-03T18:50:34.991Z,5.33
2018-08-03T18:53:02.400Z,6.23
2018-08-03T18:55:29.881Z,5.57
2018-08-03T18:57:57.448Z,5.87
2018-08-03T19:00:24.792Z,6.10
2018-08-03T19:02:52.182Z,6.20
2018-08-03T19:05:19.557Z,5.93
2018-08-03T19:07:46.927Z,5.90
2018-08-03T19:10:14.520Z,6.90
2018-08-03T19:12:46.499Z,7.20
2018-08-03T19:15:14.657Z,6.50
2018-08-03T19:17:42.451Z,6.23
2018-08-03T19:20:45.417Z,6.10
2018-08-03T19:23:12.777Z,5.63
2018-08-03T19:25:46.101Z,6.50
2018-08-03T19:28:13.853Z,7.30
2018-08-03T19:30:41.679Z,5.57
2018-08-03T19:33:09.319Z,5.90
2018-08-03T19:35:36.910Z,5.90
2018-08-03T19:38:09.573Z,6.57
2018-08-03T19:40:37.126Z,7.13
2018-08-03T19:43:04.745Z,6.03
2018-08-03T19:45:32.304Z,5.23
2018-08-03T19:47:59.844Z,5.40
2018-08-03T19:50:32.742Z,5.93
2018-08-03T19:53:00.266Z,5.63
2018-08-03T19:55:27.929Z,5.50
2018-08-03T19:57:55.504Z,5.40
2018-08-03T20:00:23.033Z,5.10
2018-08-03T20:02:54.799Z,5.50
2018-08-03T20:05:22.775Z,5.30
2018-08-03T20:07:50.365Z,6.80
2018-08-03T20:10:18.100Z,11.10
2018-08-03T20:12:45.614Z,8.90
2018-08-03T20:15:13.196Z,6.37
2018-08-03T20:17:42.363Z,5.87
2018-08-03T20:20:09.956Z,5.73
2018-08-03T20:22:37.499Z,5.33
2018-08-03T20:25:05.524Z,5.87
2018-08-03T20:27:33.047Z,5.67
2018-08-03T20:30:06.120Z,6.97
2018-08-03T20:32:33.740Z,5.60
2018-08-03T20:35:01.297Z,5.00
2018-08-03T20:37:28.848Z,5.47
2018-08-03T20:39:56.482Z,5.67
2018-08-03T20:42:29.823Z,5.73
2018-08-03T20:44:57.408Z,5.17
2018-08-03T20:47:24.980Z,5.40
2018-08-03T20:49:52.525Z,5.90
2018-08-03T20:52:20.153Z,6.23
2018-08-03T20:54:52.517Z,5.30
2018-08-03T20:57:20.458Z,5.70
2018-08-03T20:59:48.097Z,5.77
2018-08-03T21:02:15.649Z,5.60
2018-08-03T21:04:43.586Z,5.73
2018-08-03T21:07:15.985Z,6.20
2018-08-03T21:09:43.514Z,5.50
2018-08-03T21:12:11.169Z,6.00
2018-08-03T21:14:38.687Z,6.03
2018-08-03T21:17:06.276Z,5.67
2018-08-03T21:19:39.475Z,5.53
2018-08-03T21:22:07.293Z,5.73
2018-08-03T21:24:34.963Z,6.00
2018-08-03T21:27:02.528Z,9.13
2018-08-03T21:29:30.063Z,5.20
2018-08-03T21:32:02.674Z,5.90
2018-08-03T21:34:30.269Z,6.07
2018-08-03T21:36:57.916Z,5.20
2018-08-03T21:39:25.505Z,5.17
2018-08-03T21:41:53.089Z,5.00
2018-08-03T21:44:20.808Z,5.73
2018-08-03T21:46:52.511Z,4.70
2018-08-03T21:49:20.041Z,5.73
2018-08-03T21:51:47.610Z,6.23
2018-08-03T21:54:15.163Z,7.03
2018-08-03T21:56:42.673Z,5.20
2018-08-03T21:59:10.176Z,5.23
2018-08-03T22:01:40.513Z,6.03
2018-08-03T22:04:08.116Z,6.37
2018-08-03T22:06:35.700Z,6.90
2018-08-03T22:09:06.389Z,7.00
2018-08-03T22:11:33.944Z,7.30
2018-08-03T22:14:06.041Z,6.67
2018-08-03T22:16:33.673Z,4.77
2018-08-03T22:19:01.283Z,6.03
2018-08-03T22:21:28.767Z,4.50
2018-08-03T22:23:56.341Z,5.20
2018-08-03T22:26:23.943Z,4.70
2018-08-03T22:28:51.514Z,6.43
2018-08-03T22:31:19.160Z,5.13
2018-08-03T22:33:46.777Z,5.43
2018-08-03T22:36:14.381Z,8.63
2018-08-03T22:38:42.096Z,6.70
2018-08-03T22:41:09.545Z,5.07
2018-08-03T22:43:37.273Z,7.03
2018-08-03T22:46:04.905Z,4.17
2018-08-03T22:48:32.764Z,5.03
2018-08-03T22:51:00.313Z,4.67
2018-08-03T22:53:27.888Z,3.93
2018-08-03T22:55:55.448Z,4.57
2018-08-03T22:58:24.393Z,4.83
2018-08-03T23:00:51.869Z,5.27
2018-08-03T23:03:19.215Z,5.37
2018-08-03T23:05:46.753Z,6.60
2018-08-03T23:08:14.412Z,6.27
2018-08-03T23:10:41.965Z,3.80
2018-08-03T23:13:09.533Z,3.80
2018-08-03T23:15:37.350Z,6.63
2018-08-03T23:18:05.282Z,6.03
2018-08-03T23:20:32.722Z,4.07
2018-08-03T23:23:00.019Z,6.47
2018-08-03T23:25:30.531Z,3.70
2018-08-03T23:27:58.212Z,4.00
2018-08-03T23:30:26.418Z,8.80
2018-08-03T23:32:54.080Z,4.23
2018-08-03T23:35:21.677Z,3.63
2018-08-03T23:37:49.086Z,3.43
2018-08-03T23:40:16.429Z,4.47
2018-08-03T23:42:43.801Z,3.70
2018-08-03T23:45:12.963Z,4.50
2018-08-03T23:47:40.411Z,3.70
2018-08-03T23:50:13.985Z,4.33
2018-08-03T23:52:42.601Z,3.60
2018-08-03T23:55:10.088Z,4.40
2018-08-03T23:57:37.441Z,4.43
